Time;durP1;ratioP1;P1;durP2;ratioP2;P2;SDS_P1;SDS_P2;PMS_P1;PMS_P2;Temp;Humidity;BMP_temperature;BMP_pressure;BME280_temperature;BME280_humidity;BME280_pressure;Samples;Min_cycle;Max_cycle;Signal;HPM_P1;HPM_P2
2021/08/13 00:01:01;;;;;;;13.70;11.07;;;;;;;16.57;100.00;101809.06;4846623;29;1029286;-79
2021/08/13 00:03:26;;;;;;;15.40;11.13;;;;;;;16.51;100.00;101784.03;4885077;29;20103;-79
2021/08/13 00:05:52;;;;;;;14.55;10.52;;;;;;;16.63;100.00;101792.53;4878852;29;20127;-80
2021/08/13 00:08:18;;;;;;;13.15;11.18;;;;;;;16.67;100.00;101787.72;4878533;29;20033;-78
2021/08/13 00:10:43;;;;;;;16.63;11.73;;;;;;;16.71;100.00;101789.09;4900965;29;20498;-77
2021/08/13 00:13:08;;;;;;;14.70;11.98;;;;;;;16.73;100.00;101787.94;4903367;29;20040;-79
2021/08/13 00:15:34;;;;;;;15.63;11.80;;;;;;;16.72;100.00;101788.09;4896026;29;20044;-78
2021/08/13 00:18:00;;;;;;;15.63;12.77;;;;;;;16.70;100.00;101785.59;4901277;29;20118;-78
2021/08/13 00:20:26;;;;;;;17.15;12.95;;;;;;;16.68;100.00;101784.09;4909068;29;20546;-79
2021/08/13 00:22:52;;;;;;;20.65;14.55;;;;;;;16.73;100.00;101779.97;4889021;29;20024;-78
2021/08/13 00:25:19;;;;;;;21.90;13.43;;;;;;;16.73;100.00;101779.97;4868318;29;20040;-77
2021/08/13 00:27:45;;;;;;;16.88;13.50;;;;;;;16.69;100.00;101772.53;4885075;29;20028;-78
2021/08/13 00:30:11;;;;;;;20.48;13.50;;;;;;;16.71;100.00;101784.63;4910309;29;20028;-79
2021/08/13 00:32:37;;;;;;;18.40;13.23;;;;;;;16.66;100.00;101776.31;4909296;29;20071;-79
2021/08/13 00:35:04;;;;;;;16.42;13.73;;;;;;;16.69;100.00;101781.31;4878934;29;20043;-78
2021/08/13 00:37:31;;;;;;;16.98;14.23;;;;;;;16.67;100.00;101779.78;4887313;29;20039;-80
2021/08/13 00:39:57;;;;;;;16.13;12.93;;;;;;;16.63;100.00;101781.09;4908138;29;20058;-77
2021/08/13 00:42:22;;;;;;;18.33;13.35;;;;;;;16.63;100.00;101787.25;4892503;29;20457;-77
2021/08/13 00:44:50;;;;;;;18.77;13.73;;;;;;;16.67;100.00;101793.03;4891789;29;20035;-81
2021/08/13 00:47:16;;;;;;;22.38;13.68;;;;;;;16.63;100.00;101787.25;4877482;29;20028;-80
2021/08/13 00:49:59;;;;;;;24.88;13.55;;;;;;;16.65;100.00;101795.88;4887312;29;20045;-76
2021/08/13 00:52:32;;;;;;;19.40;13.18;;;;;;;16.67;100.00;101795.69;4885249;29;20043;-78
2021/08/13 00:54:58;;;;;;;17.75;12.23;;;;;;;16.71;100.00;101800.50;4903603;29;20040;-78
2021/08/13 00:57:39;;;;;;;22.20;11.95;;;;;;;16.65;100.00;101790.56;4873050;29;20059;-77
2021/08/13 01:00:20;;;;;;;14.45;11.73;;;;;;;16.71;100.00;101799.69;4882608;29;20044;-79
2021/08/13 01:02:50;;;;;;;22.13;12.73;;;;;;;16.74;100.00;101808.16;4887357;29;20031;-78
2021/08/13 01:05:16;;;;;;;19.98;12.75;;;;;;;16.75;100.00;101806.31;4891029;29;20040;-78
2021/08/13 01:07:43;;;;;;;17.05;13.43;;;;;;;16.83;100.00;101803.72;4867013;29;20105;-79
2021/08/13 01:10:09;;;;;;;16.95;14.10;;;;;;;16.81;100.00;101800.38;4873854;29;20565;-80
2021/08/13 01:12:56;;;;;;;18.65;14.88;;;;;;;16.82;100.00;101798.53;4898345;29;20036;-77
2021/08/13 01:15:30;;;;;;;17.50;13.75;;;;;;;16.80;100.00;101816.41;4898180;29;20048;-79
2021/08/13 01:18:05;;;;;;;16.75;14.63;;;;;;;16.72;100.00;101801.34;4866884;29;20062;-80
2021/08/13 01:21:07;;;;;;;18.70;15.10;;;;;;;16.72;100.00;101814.56;4882308;29;20040;-77
2021/08/13 01:23:58;;;;;;;21.95;17.02;;;;;;;16.80;100.00;101822.56;4896362;29;20044;-78
2021/08/13 01:26:30;;;;;;;22.75;17.23;;;;;;;16.87;100.00;101814.81;4914220;29;20050;-78
2021/08/13 01:29:17;;;;;;;21.35;18.42;;;;;;;16.91;100.00;101818.78;4879962;29;20035;-80
2021/08/13 01:32:09;;;;;;;21.52;18.38;;;;;;;16.93;100.00;101824.75;4877494;29;20078;-79
2021/08/13 01:34:42;;;;;;;21.15;16.92;;;;;;;16.92;100.00;101805.41;4887099;29;20040;-80
2021/08/13 01:37:08;;;;;;;20.02;16.20;;;;;;;16.88;100.00;101806.72;4881996;29;20050;-78
2021/08/13 01:39:37;;;;;;;21.90;16.00;;;;;;;16.89;100.00;101803.06;4873822;29;20036;-80
2021/08/13 01:42:06;;;;;;;21.00;16.58;;;;;;;16.94;100.00;101810.53;4898807;29;20391;-80
2021/08/13 01:44:33;;;;;;;20.13;16.17;;;;;;;16.95;100.00;101811.34;4900566;29;20416;-78
2021/08/13 01:46:59;;;;;;;18.40;15.73;;;;;;;16.93;100.00;101820.31;4898239;29;20040;-79
2021/08/13 01:49:27;;;;;;;20.17;16.40;;;;;;;16.89;100.00;101813.66;4899196;29;20036;-79
2021/08/13 01:51:53;;;;;;;20.63;16.13;;;;;;;16.90;100.00;101820.63;4870022;29;20039;-78
2021/08/13 01:54:22;;;;;;;19.02;16.10;;;;;;;16.85;100.00;101820.28;4885153;29;20604;-81
2021/08/13 01:56:48;;;;;;;20.38;15.57;;;;;;;16.82;100.00;101812.66;4896112;29;20044;-78
2021/08/13 01:59:15;;;;;;;18.27;14.77;;;;;;;16.82;100.00;101820.63;4877334;29;20063;-80
2021/08/13 02:01:42;;;;;;;17.05;14.88;;;;;;;16.80;100.00;101813.78;4896507;29;20036;-78
2021/08/13 02:04:08;;;;;;;17.42;14.95;;;;;;;16.83;100.00;101810.84;4890112;29;20036;-78
2021/08/13 02:06:36;;;;;;;15.60;13.43;;;;;;;16.83;100.00;101801.06;4900075;29;20048;-80
2021/08/13 02:09:10;;;;;;;19.08;15.18;;;;;;;16.89;100.00;101811.00;4883195;29;20044;-79
2021/08/13 02:11:40;;;;;;;18.40;15.35;;;;;;;16.88;100.00;101809.38;4881439;29;20047;-83
2021/08/13 02:14:07;;;;;;;17.25;14.23;;;;;;;16.87;100.00;101812.16;4873153;29;20049;-79
2021/08/13 02:16:36;;;;;;;16.05;13.70;;;;;;;16.76;100.00;101800.00;4883726;29;20422;-79
2021/08/13 02:19:08;;;;;;;21.95;13.90;;;;;;;16.82;100.00;101804.72;4880983;29;20036;-79
2021/08/13 02:21:38;;;;;;;18.58;14.20;;;;;;;16.81;100.00;101804.84;4865345;29;20048;-80
2021/08/13 02:24:05;;;;;;;16.42;14.23;;;;;;;16.75;100.00;101806.31;4897890;29;20040;-80
2021/08/13 02:26:32;;;;;;;19.08;13.80;;;;;;;16.66;100.00;101799.34;4879683;29;20131;-79
2021/08/13 02:28:59;;;;;;;20.60;14.90;;;;;;;16.72;100.00;101817.22;4867600;29;20782;-79
2021/08/13 02:31:25;;;;;;;18.30;14.77;;;;;;;16.67;100.00;101809.78;4904868;29;20110;-77
2021/08/13 02:33:50;;;;;;;18.52;14.75;;;;;;;16.63;100.00;101812.88;4887997;29;20036;-80
2021/08/13 02:36:24;;;;;;;16.65;13.65;;;;;;;16.59;100.00;101811.56;4879333;29;20040;-78
2021/08/13 02:38:59;;;;;;;17.02;14.15;;;;;;;16.54;100.00;101810.22;4869327;29;20464;-79
2021/08/13 02:41:30;;;;;;;17.08;13.88;;;;;;;16.54;100.00;101801.44;4867330;29;20048;-81
2021/08/13 02:43:59;;;;;;;16.02;13.98;;;;;;;16.47;100.00;101795.94;4882620;29;20055;-82
2021/08/13 02:46:32;;;;;;;18.40;14.75;;;;;;;16.43;100.00;101802.56;4867828;29;20036;-80
2021/08/13 02:49:00;;;;;;;17.88;14.95;;;;;;;16.35;100.00;101798.06;4882719;29;20036;-79
2021/08/13 02:51:30;;;;;;;17.27;15.02;;;;;;;16.32;100.00;101795.72;4886726;29;20387;-81
2021/08/13 02:53:56;;;;;;;19.35;15.13;;;;;;;16.27;100.00;101797.19;4902022;29;20032;-82
2021/08/13 02:56:27;;;;;;;21.65;15.85;;;;;;;16.20;100.00;101801.44;4901269;29;20045;-79
2021/08/13 02:58:58;;;;;;;22.27;16.13;;;;;;;16.13;100.00;101798.63;4867937;29;20040;-79
2021/08/13 03:01:26;;;;;;;17.35;15.00;;;;;;;16.07;100.00;101788.66;4873991;29;20047;-78
2021/08/13 03:03:55;;;;;;;22.27;16.30;;;;;;;15.99;100.00;101791.25;4882747;29;20043;-80
2021/08/13 03:06:30;;;;;;;17.90;14.95;;;;;;;15.95;100.00;101788.09;4867225;29;20047;-78
2021/08/13 03:09:00;;;;;;;19.77;15.63;;;;;;;15.85;100.00;101787.38;4874963;29;20039;-80
2021/08/13 03:11:26;;;;;;;20.52;14.57;;;;;;;15.84;100.00;101791.84;4907199;29;20031;-77
2021/08/13 03:13:53;;;;;;;19.98;15.00;;;;;;;15.79;100.00;101786.19;4882342;29;20083;-81
2021/08/13 03:16:19;;;;;;;17.00;15.15;;;;;;;15.79;100.00;101785.34;4914726;29;20086;-79
2021/08/13 03:18:50;;;;;;;21.42;16.10;;;;;;;15.76;100.00;101787.31;4883677;29;20626;-78
2021/08/13 03:21:17;;;;;;;18.17;15.40;;;;;;;15.71;100.00;101788.75;4866076;29;20042;-80
2021/08/13 03:23:43;;;;;;;18.42;14.77;;;;;;;15.67;100.00;101790.88;4898242;29;20028;-79
2021/08/13 03:26:09;;;;;;;21.90;16.98;;;;;;;15.64;100.00;101780.59;4901535;29;20397;-79
2021/08/13 03:28:36;;;;;;;21.23;16.05;;;;;;;15.58;100.00;101779.38;4884941;29;20048;-78
2021/08/13 03:31:02;;;;;;;21.27;17.17;;;;;;;15.59;100.00;101782.84;4907204;29;20734;-81
2021/08/13 03:33:30;;;;;;;19.90;16.73;;;;;;;15.59;100.00;101782.84;4905028;29;20043;-80
2021/08/13 03:35:59;;;;;;;21.17;16.65;;;;;;;15.56;100.00;101788.47;4897362;29;20040;-81
2021/08/13 03:38:25;;;;;;;22.42;17.05;;;;;;;15.55;100.00;101786.78;4896224;29;20048;-80
2021/08/13 03:40:51;;;;;;;21.85;17.05;;;;;;;15.54;100.00;101787.78;4880942;29;20517;-79
2021/08/13 03:43:17;;;;;;;19.75;16.60;;;;;;;15.47;100.00;101789.38;4897258;29;20406;-79
2021/08/13 03:45:43;;;;;;;21.42;16.67;;;;;;;15.44;100.00;101787.84;4898829;29;20122;-80
2021/08/13 03:48:09;;;;;;;23.15;18.08;;;;;;;15.39;100.00;101800.72;4882014;29;20059;-80
2021/08/13 03:50:35;;;;;;;24.13;16.98;;;;;;;15.40;100.00;101802.38;4886617;29;20059;-80
2021/08/13 03:53:02;;;;;;;19.15;17.15;;;;;;;15.40;100.00;101802.38;4899691;29;20042;-78
2021/08/13 03:55:27;;;;;;;21.45;16.98;;;;;;;15.34;100.00;101780.03;4900278;29;20069;-79
2021/08/13 03:57:53;;;;;;;20.10;16.20;;;;;;;15.35;100.00;101789.63;4890880;29;20043;-80
2021/08/13 04:00:19;;;;;;;21.58;15.82;;;;;;;15.32;100.00;101797.84;4883191;29;20383;-80
2021/08/13 04:02:47;;;;;;;22.38;15.63;;;;;;;15.34;100.00;101801.16;4915565;29;20032;-80
2021/08/13 04:05:18;;;;;;;21.45;16.30;;;;;;;15.30;100.00;101796.34;4906020;29;20032;-78
2021/08/13 04:07:44;;;;;;;17.88;15.48;;;;;;;15.21;100.00;101784.03;4900641;29;20224;-79
2021/08/13 04:10:10;;;;;;;19.95;16.13;;;;;;;15.22;100.00;101783.91;4869513;29;20499;-82
2021/08/13 04:12:36;;;;;;;20.13;15.48;;;;;;;15.18;100.00;101782.50;4899992;29;20157;-79
2021/08/13 04:15:20;;;;;;;19.20;17.00;;;;;;;15.19;100.00;101786.84;4886786;29;20058;-79
2021/08/13 04:17:48;;;;;;;21.90;16.40;;;;;;;15.16;100.00;101789.75;4885229;29;20043;-80
2021/08/13 04:20:15;;;;;;;24.33;17.45;;;;;;;15.10;100.00;101785.91;4900340;29;20039;-79
2021/08/13 04:22:45;;;;;;;21.00;17.20;;;;;;;15.07;100.00;101803.88;4869789;29;20116;-79
2021/08/13 04:25:12;;;;;;;22.27;17.73;;;;;;;14.99;100.00;101801.97;4884692;29;20387;-78
2021/08/13 04:27:37;;;;;;;22.52;16.60;;;;;;;15.02;100.00;101806.16;4891065;29;20047;-79
2021/08/13 04:30:04;;;;;;;21.00;16.23;;;;;;;14.98;100.00;101797.69;4900271;29;20055;-79
2021/08/13 04:32:30;;;;;;;21.55;17.02;;;;;;;14.99;100.00;101801.97;4893183;29;20033;-80
2021/08/13 04:34:56;;;;;;;24.73;17.10;;;;;;;15.03;100.00;101811.28;4884588;29;20508;-79
2021/08/13 04:37:22;;;;;;;22.17;16.38;;;;;;;15.07;100.00;101812.66;4900994;29;20044;-79
2021/08/13 04:39:48;;;;;;;22.23;17.05;;;;;;;15.08;100.00;101814.31;4884597;29;20040;-79
2021/08/13 04:42:13;;;;;;;24.30;17.25;;;;;;;15.04;100.00;101801.56;4885925;29;20079;-80
2021/08/13 04:44:40;;;;;;;23.50;17.75;;;;;;;15.06;100.00;101799.59;4887080;29;20050;-80
2021/08/13 04:47:08;;;;;;;22.50;17.48;;;;;;;15.13;100.00;101804.13;4919153;29;20039;-81
2021/08/13 04:49:35;;;;;;;24.13;17.17;;;;;;;15.09;100.00;101797.47;4893265;29;20040;-79
2021/08/13 04:52:04;;;;;;;24.85;18.15;;;;;;;15.10;100.00;101807.06;4884027;29;20105;-80
2021/08/13 04:54:30;;;;;;;24.35;19.55;;;;;;;15.18;100.00;101815.06;4869838;29;20051;-80
2021/08/13 04:56:56;;;;;;;26.00;17.65;;;;;;;15.22;100.00;101815.63;4884230;29;20068;-81
2021/08/13 04:59:21;;;;;;;23.02;18.95;;;;;;;15.32;100.00;101818.16;4907375;29;20450;-81
2021/08/13 05:01:52;;;;;;;23.65;18.98;;;;;;;15.37;100.00;101819.38;4884763;29;20115;-82
2021/08/13 05:04:18;;;;;;;25.42;18.27;;;;;;;15.45;100.00;101812.50;4883992;29;20118;-81
2021/08/13 05:06:45;;;;;;;21.70;18.80;;;;;;;15.52;100.00;101806.44;4920232;29;20114;-79
2021/08/13 05:09:12;;;;;;;22.05;19.27;;;;;;;15.66;100.00;101812.16;4883144;29;20036;-80
2021/08/13 05:11:38;;;;;;;26.10;20.13;;;;;;;15.82;100.00;101816.78;4865813;29;20127;-81
2021/08/13 05:14:04;;;;;;;26.83;20.63;;;;;;;15.88;100.00;101816.13;4891132;29;20122;-81
2021/08/13 05:16:30;;;;;;;27.42;22.52;;;;;;;16.06;100.00;101818.75;4889278;29;20498;-80
2021/08/13 05:18:55;;;;;;;27.92;22.60;;;;;;;16.12;100.00;101818.97;4884163;29;20043;-80
2021/08/13 05:21:21;;;;;;;30.25;22.27;;;;;;;16.24;100.00;101824.81;4901782;29;20043;-80
2021/08/13 05:23:47;;;;;;;28.65;21.95;;;;;;;16.40;100.00;101828.53;4892349;29;20060;-82
2021/08/13 05:26:12;;;;;;;25.95;21.30;;;;;;;16.50;100.00;101821.28;4901721;29;20044;-80
2021/08/13 05:28:38;;;;;;;26.05;21.52;;;;;;;16.51;100.00;101823.78;4902045;29;20032;-81
2021/08/13 05:31:04;;;;;;;26.58;21.38;;;;;;;16.53;100.00;101819.13;4901320;29;20509;-81
2021/08/13 05:33:32;;;;;;;27.65;20.73;;;;;;;16.73;100.00;101838.25;4904630;29;20063;-80
2021/08/13 05:35:58;;;;;;;29.33;21.60;;;;;;;16.87;100.00;101828.88;4891083;29;20123;-80
2021/08/13 05:38:23;;;;;;;23.70;19.73;;;;;;;16.99;100.00;101831.22;4883551;29;20076;-80
2021/08/13 05:40:50;;;;;;;22.80;19.23;;;;;;;17.10;100.00;101822.97;4884982;29;20454;-80
2021/08/13 05:43:16;;;;;;;24.65;18.52;;;;;;;17.17;100.00;101831.94;4870292;29;20577;-80
2021/08/13 05:45:42;;;;;;;24.55;19.42;;;;;;;17.25;100.00;101828.47;4901260;29;20036;-82
2021/08/13 05:48:09;;;;;;;23.33;18.80;;;;;;;17.39;100.00;101833.13;4866333;29;20407;-80
2021/08/13 05:50:35;;;;;;;23.00;18.50;;;;;;;17.50;100.00;101839.94;4891069;29;20040;-80
2021/08/13 05:53:02;;;;;;;22.25;18.23;;;;;;;17.66;100.00;101844.41;4909766;29;20040;-79
2021/08/13 05:55:33;;;;;;;22.20;17.45;;;;;;;17.83;100.00;101845.22;4881447;29;20068;-79
2021/08/13 05:57:59;;;;;;;22.05;17.52;;;;;;;17.91;100.00;101831.97;4881644;29;20037;-80
2021/08/13 06:00:25;;;;;;;23.23;16.55;;;;;;;18.05;100.00;101836.59;4870036;29;20075;-81
2021/08/13 06:03:00;;;;;;;19.27;15.20;;;;;;;18.18;98.64;101845.88;4925773;29;20032;-81
2021/08/13 06:05:28;;;;;;;20.65;14.90;;;;;;;18.29;98.01;101845.50;4867348;29;20024;-81
2021/08/13 06:07:56;;;;;;;19.42;15.05;;;;;;;18.37;97.11;101837.50;4898404;29;20115;-81
2021/08/13 06:10:22;;;;;;;19.50;15.18;;;;;;;18.44;97.50;101838.47;4878329;29;20511;-80
2021/08/13 06:12:48;;;;;;;18.98;14.80;;;;;;;18.43;95.30;101833.34;4912345;29;20032;-81
2021/08/13 06:15:15;;;;;;;18.20;13.10;;;;;;;18.49;95.60;101833.47;4903850;29;20075;-80
2021/08/13 06:17:42;;;;;;;14.80;13.00;;;;;;;18.60;96.25;101834.91;4886358;29;20032;-80
2021/08/13 06:20:10;;;;;;;18.85;13.65;;;;;;;18.78;95.63;101839.13;4897904;29;20093;-82
2021/08/13 06:22:36;;;;;;;19.00;13.13;;;;;;;18.91;93.65;101825.31;4866135;29;20039;-81
2021/08/13 06:25:03;;;;;;;16.33;12.70;;;;;;;18.96;92.80;101822.97;4891305;29;20043;-81
2021/08/13 06:27:28;;;;;;;14.57;12.23;;;;;;;18.95;93.10;101821.31;4894548;29;20506;-80
2021/08/13 06:29:54;;;;;;;14.52;11.45;;;;;;;19.02;93.09;101816.94;4883850;29;20042;-81
2021/08/13 06:32:19;;;;;;;15.18;11.77;;;;;;;19.22;91.54;101825.28;4899674;29;20502;-82
2021/08/13 06:34:46;;;;;;;19.23;10.65;;;;;;;19.31;90.70;101820.72;4897542;29;20036;-81
2021/08/13 06:37:12;;;;;;;16.15;11.27;;;;;;;19.40;90.13;101819.66;4933212;29;20387;-81
2021/08/13 06:39:38;;;;;;;18.17;10.85;;;;;;;19.59;88.57;101828.97;4881987;29;20091;-80
2021/08/13 06:42:04;;;;;;;13.60;10.73;;;;;;;19.73;88.21;101830.88;4912459;29;20069;-81
2021/08/13 06:44:33;;;;;;;14.20;10.07;;;;;;;19.90;87.74;101818.25;4899144;29;20620;-79
2021/08/13 06:46:59;;;;;;;14.77;9.95;;;;;;;19.99;87.07;101829.66;4890785;29;20029;-80
2021/08/13 06:49:25;;;;;;;15.02;10.07;;;;;;;20.09;84.99;101824.88;4889548;29;20055;-81
2021/08/13 06:51:50;;;;;;;16.25;9.20;;;;;;;20.17;85.28;101822.13;4890223;29;20039;-81
2021/08/13 06:54:16;;;;;;;13.13;8.98;;;;;;;20.25;85.87;101823.88;4911298;29;20044;-80
2021/08/13 06:56:42;;;;;;;14.07;9.50;;;;;;;20.55;84.95;101831.81;4913221;29;20031;-80
2021/08/13 06:59:08;;;;;;;10.93;8.65;;;;;;;20.71;85.17;101830.81;4901582;29;20032;-80
2021/08/13 07:01:34;;;;;;;11.10;8.02;;;;;;;20.89;82.83;101825.06;4870435;29;20224;-81
2021/08/13 07:03:59;;;;;;;11.05;7.75;;;;;;;21.05;81.44;101824.00;4899111;29;20100;-79
2021/08/13 07:06:25;;;;;;;9.13;7.30;;;;;;;21.07;81.04;101833.47;4899251;29;20046;-80
2021/08/13 07:08:51;;;;;;;10.05;7.88;;;;;;;21.29;80.38;101834.31;4904464;29;20060;-80
2021/08/13 07:11:16;;;;;;;13.45;7.25;;;;;;;21.44;79.80;101836.09;4890848;29;20042;-80
2021/08/13 07:13:42;;;;;;;11.55;7.47;;;;;;;21.62;79.07;101838.31;4908548;29;20040;-80
2021/08/13 07:16:09;;;;;;;13.00;7.45;;;;;;;21.82;77.71;101839.28;4896608;29;20077;-81
2021/08/13 07:18:36;;;;;;;9.85;6.90;;;;;;;22.01;74.93;101834.28;4903549;29;20040;-79
2021/08/13 07:21:02;;;;;;;7.20;6.07;;;;;;;22.21;72.76;101835.22;4900784;28;20036;-79
2021/08/13 07:23:27;;;;;;;10.10;6.25;;;;;;;22.37;74.06;101847.44;4889557;29;20028;-81
2021/08/13 07:25:53;;;;;;;8.32;6.13;;;;;;;22.45;72.67;101851.81;4930436;29;20055;-80
2021/08/13 07:28:19;;;;;;;8.18;6.55;;;;;;;22.46;72.98;101846.25;4937478;29;20379;-80
2021/08/13 07:30:45;;;;;;;9.52;6.40;;;;;;;22.36;73.70;101853.84;4899487;29;20043;-80
2021/08/13 07:33:12;;;;;;;11.65;7.53;;;;;;;22.17;73.55;101853.50;4922588;29;20039;-82
2021/08/13 07:35:37;;;;;;;14.00;7.60;;;;;;;22.18;75.45;101840.94;4907370;29;20095;-82
2021/08/13 07:38:05;;;;;;;10.23;6.65;;;;;;;22.26;74.31;101840.81;4892080;29;20055;-81
2021/08/13 07:40:31;;;;;;;8.77;6.13;;;;;;;22.46;75.34;101853.47;4904361;29;20016;-81
2021/08/13 07:42:57;;;;;;;7.68;5.82;;;;;;;22.43;75.06;101849.31;4903271;29;20043;-81
2021/08/13 07:45:23;;;;;;;10.30;6.15;;;;;;;22.43;73.20;101852.00;4925158;29;20063;-80
2021/08/13 07:47:49;;;;;;;12.02;6.10;;;;;;;22.58;74.74;101848.38;4906452;29;20132;-80
2021/08/13 07:50:14;;;;;;;11.65;5.80;;;;;;;22.81;70.35;101845.34;4923017;29;20027;-80
2021/08/13 07:52:42;;;;;;;7.80;5.68;;;;;;;23.04;68.79;101840.53;4906489;29;20052;-80
2021/08/13 07:55:10;;;;;;;8.70;5.28;;;;;;;23.26;70.43;101840.34;4930677;29;20041;-80
2021/08/13 07:57:36;;;;;;;6.22;5.63;;;;;;;23.47;68.41;101839.31;4941599;29;20043;-82
2021/08/13 08:00:04;;;;;;;10.77;5.97;;;;;;;23.56;67.54;101837.28;4899970;29;20062;-81
2021/08/13 08:02:35;;;;;;;8.88;5.80;;;;;;;23.76;67.70;101842.63;4937813;29;20027;-80
2021/08/13 08:05:02;;;;;;;7.57;5.53;;;;;;;23.82;66.72;101848.00;4921855;29;20059;-81
2021/08/13 08:07:28;;;;;;;6.50;5.38;;;;;;;23.85;70.15;101841.41;4918219;29;20135;-81
2021/08/13 08:09:53;;;;;;;10.65;5.38;;;;;;;23.96;66.44;101843.47;4929271;29;20043;-80
2021/08/13 08:12:19;;;;;;;10.02;5.90;;;;;;;24.04;69.58;101851.25;4912839;29;20048;-80
2021/08/13 08:14:44;;;;;;;9.80;5.53;;;;;;;24.08;69.82;101849.81;4930087;29;20068;-80
2021/08/13 08:17:10;;;;;;;12.65;6.38;;;;;;;24.17;66.61;101855.78;4923610;29;20035;-82
2021/08/13 08:19:35;;;;;;;9.43;5.78;;;;;;;24.28;65.43;101847.09;4890014;29;20036;-84
2021/08/13 08:22:01;;;;;;;11.68;5.60;;;;;;;24.38;63.98;101837.78;4885826;29;20091;-82
2021/08/13 08:24:26;;;;;;;11.32;5.95;;;;;;;24.34;63.46;101853.47;4896787;29;20428;-81
2021/08/13 08:26:52;;;;;;;8.52;5.70;;;;;;;24.28;64.50;101860.50;4903953;29;20261;-82
2021/08/13 08:29:18;;;;;;;11.35;5.55;;;;;;;24.49;63.31;101859.38;4886101;29;20036;-82
2021/08/13 08:31:43;;;;;;;10.88;6.28;;;;;;;24.54;60.74;101852.59;4900011;29;20138;-80
2021/08/13 08:34:09;;;;;;;9.43;5.88;;;;;;;24.73;64.02;101851.66;4917968;29;20557;-80
2021/08/13 08:36:34;;;;;;;7.93;5.22;;;;;;;24.85;60.21;101851.81;4884543;29;20044;-82
2021/08/13 08:39:00;;;;;;;7.43;5.65;;;;;;;24.79;62.03;101861.56;4901699;29;20028;-81
2021/08/13 08:41:26;;;;;;;9.48;6.25;;;;;;;24.67;60.20;101856.00;4918772;29;20119;-83
2021/08/13 08:43:52;;;;;;;10.95;5.43;;;;;;;24.71;61.94;101859.09;4890878;29;20032;-82
2021/08/13 08:46:20;;;;;;;12.63;5.40;;;;;;;24.79;63.26;101848.13;4886953;29;20036;-81
2021/08/13 08:48:49;;;;;;;11.77;5.93;;;;;;;24.86;60.25;101848.94;4885297;29;20422;-81
2021/08/13 08:51:16;;;;;;;9.20;5.78;;;;;;;24.78;61.82;101841.13;4911056;29;20405;-81
2021/08/13 08:53:43;;;;;;;9.38;6.40;;;;;;;24.78;59.86;101837.63;4887377;29;20043;-81
2021/08/13 08:56:09;;;;;;;8.05;5.70;;;;;;;24.95;60.49;101840.63;4893073;29;20032;-82
2021/08/13 08:58:35;;;;;;;11.23;6.03;;;;;;;25.10;59.85;101841.13;4907958;29;20137;-82
2021/08/13 09:01:01;;;;;;;8.68;6.35;;;;;;;25.22;59.36;101838.56;4886501;29;20038;-83
2021/08/13 09:03:27;;;;;;;8.93;5.78;;;;;;;25.33;60.52;101829.84;4928595;29;20029;-79
2021/08/13 09:05:52;;;;;;;16.38;7.00;;;;;;;25.51;59.59;101837.13;4906216;29;20068;-83
2021/08/13 09:08:19;;;;;;;8.93;6.20;;;;;;;25.45;58.46;101833.47;4908045;29;20066;-82
2021/08/13 09:10:45;;;;;;;9.60;5.72;;;;;;;25.49;59.61;101836.53;4902849;29;20043;-81
2021/08/13 09:13:11;;;;;;;5.90;5.22;;;;;;;25.32;61.91;101840.81;4904130;29;20033;-83
2021/08/13 09:15:42;;;;;;;7.78;5.35;;;;;;;25.17;58.09;101843.78;4921316;29;20119;-81
2021/08/13 09:18:12;;;;;;;7.53;5.57;;;;;;;25.05;60.56;101833.75;4903780;29;20047;-82
2021/08/13 09:20:43;;;;;;;8.05;5.70;;;;;;;25.17;58.89;101831.19;4905077;29;20426;-84
2021/08/13 09:23:09;;;;;;;9.73;5.50;;;;;;;25.39;58.09;101831.66;4922850;29;20039;-83
2021/08/13 09:25:34;;;;;;;7.57;5.32;;;;;;;25.51;59.83;101841.69;4903006;29;20135;-81
2021/08/13 09:28:37;;;;;;;7.93;5.25;;;;;;;25.68;58.03;101837.41;4923559;29;20085;-82
2021/08/13 09:31:19;;;;;;;8.40;5.95;;;;;;;25.72;56.24;101835.09;4892809;29;20039;-83
2021/08/13 09:33:48;;;;;;;11.63;6.03;;;;;;;25.55;55.58;101835.66;4895189;29;20040;-81
2021/08/13 09:36:16;;;;;;;8.32;5.60;;;;;;;25.61;58.04;101842.00;4886714;29;20103;-80
2021/08/13 09:38:42;;;;;;;9.13;5.80;;;;;;;25.65;57.52;101837.84;4884384;29;20032;-82
2021/08/13 09:41:13;;;;;;;7.95;6.18;;;;;;;25.69;56.11;101841.72;4900599;29;20052;-81
2021/08/13 09:43:54;;;;;;;7.90;5.23;;;;;;;25.85;57.95;101851.09;4873962;29;20145;-80
2021/08/13 09:46:20;;;;;;;8.27;5.57;;;;;;;25.84;57.93;101850.28;4889019;29;20051;-79
2021/08/13 09:48:46;;;;;;;8.25;5.43;;;;;;;25.88;60.13;101850.66;4920743;29;20066;-83
2021/08/13 09:51:35;;;;;;;7.18;5.40;;;;;;;25.82;56.92;101851.53;4901871;29;20036;-79
2021/08/13 09:54:03;;;;;;;8.23;5.43;;;;;;;25.94;57.02;101852.47;4878495;29;20115;-83
2021/08/13 09:56:31;;;;;;;8.52;5.30;;;;;;;26.09;55.32;101848.59;4900772;29;20070;-84
2021/08/13 09:59:11;;;;;;;8.95;5.55;;;;;;;26.12;57.73;101850.84;4901704;29;20498;-82
2021/08/13 10:01:39;;;;;;;10.48;5.43;;;;;;;26.15;58.72;101853.09;4894211;29;20040;-83
2021/08/13 10:04:05;;;;;;;8.70;5.70;;;;;;;26.27;55.72;101859.34;4907543;29;20083;-81
2021/08/13 10:06:32;;;;;;;11.15;5.38;;;;;;;26.23;54.79;101858.97;4909702;29;20787;-81
2021/08/13 10:08:57;;;;;;;8.32;5.18;;;;;;;26.20;61.74;101843.31;4902853;29;20083;-83
2021/08/13 10:11:23;;;;;;;9.30;5.57;;;;;;;26.28;53.62;101839.50;4884352;29;20472;-81
2021/08/13 10:13:51;;;;;;;7.85;5.38;;;;;;;26.21;59.43;101842.25;4895436;29;20529;-81
2021/08/13 10:16:23;;;;;;;7.68;5.25;;;;;;;26.32;59.36;101845.25;4903205;29;20043;-82
2021/08/13 10:18:58;;;;;;;6.28;5.45;;;;;;;26.33;55.02;101839.63;4888930;29;20530;-82
2021/08/13 10:21:28;;;;;;;8.65;5.65;;;;;;;26.29;56.98;101843.00;4884095;29;20142;-82
2021/08/13 10:23:56;;;;;;;11.15;5.20;;;;;;;26.40;60.28;101845.75;4902065;29;20348;-82
2021/08/13 10:26:23;;;;;;;8.88;6.07;;;;;;;26.21;55.84;101841.44;4884933;29;20047;-81
2021/08/13 10:28:50;;;;;;;7.57;5.53;;;;;;;26.31;58.71;101847.09;4873847;29;20050;-81
2021/08/13 10:31:18;;;;;;;6.82;5.47;;;;;;;26.41;60.25;101850.09;4900593;29;20036;-81
2021/08/13 10:33:52;;;;;;;5.80;5.20;;;;;;;26.46;63.81;101835.97;4899688;29;20040;-81
2021/08/13 10:36:19;;;;;;;8.10;5.50;;;;;;;26.52;61.34;101851.22;4900683;29;20024;-82
2021/08/13 10:38:50;;;;;;;9.68;6.13;;;;;;;26.61;63.62;101841.78;4880492;29;20052;-80
2021/08/13 10:41:26;;;;;;;7.80;5.80;;;;;;;26.47;55.16;101828.72;4899517;29;20127;-82
2021/08/13 10:43:58;;;;;;;7.80;5.30;;;;;;;26.44;55.70;101827.28;4870305;29;20462;-81
2021/08/13 10:46:33;;;;;;;9.13;5.30;;;;;;;26.48;57.69;101820.41;4880426;29;20058;-82
2021/08/13 10:48:59;;;;;;;8.70;5.35;;;;;;;26.52;59.45;101820.78;4884912;29;20036;-81
2021/08/13 10:51:29;;;;;;;9.68;5.18;;;;;;;26.42;65.42;101832.91;4884398;29;20040;-82
2021/08/13 10:54:11;;;;;;;8.63;6.00;;;;;;;26.65;58.29;101827.88;4879975;29;20483;-81
2021/08/13 10:56:45;;;;;;;9.23;6.20;;;;;;;26.84;54.79;101821.41;4867080;29;20051;-83
2021/08/13 10:59:57;;;;;;;8.15;5.22;;;;;;;27.14;55.65;101821.38;4872585;29;20043;-82
2021/08/13 11:02:24;;;;;;;9.20;5.53;;;;;;;27.18;58.09;101810.94;4841195;29;20565;-80
2021/08/13 11:05:07;;;;;;;8.98;5.55;;;;;;;27.31;57.60;101815.34;4887396;29;20043;-81
2021/08/13 11:07:58;;;;;;;9.48;5.13;;;;;;;27.48;57.35;101813.59;4887552;29;20044;-81
2021/08/13 11:10:37;;;;;;;8.67;5.27;;;;;;;27.22;53.31;101817.53;4876910;29;20032;-81
2021/08/13 11:13:13;;;;;;;10.77;5.38;;;;;;;26.74;60.36;101808.50;4856071;29;20071;-82
2021/08/13 11:15:40;;;;;;;10.13;5.63;;;;;;;26.67;58.77;101809.66;4888133;29;20040;-82